createdAt,value
2019-01-08T00:01:42.626Z,12.30
2019-01-08T00:04:12.937Z,11.97
2019-01-08T00:06:48.288Z,13.57
2019-01-08T00:09:17.128Z,13.77
2019-01-08T00:11:46.091Z,11.67
2019-01-08T00:14:23.151Z,12.10
2019-01-08T00:16:51.960Z,12.33
2019-01-08T00:19:21.784Z,12.17
2019-01-08T00:21:51.200Z,10.10
2019-01-08T00:24:20.069Z,9.47
2019-01-08T00:26:49.445Z,10.23
2019-01-08T00:29:20.017Z,9.10
2019-01-08T00:31:50.342Z,11.00
2019-01-08T00:34:21.943Z,10.57
2019-01-08T00:36:50.792Z,11.67
2019-01-08T00:39:19.597Z,10.73
2019-01-08T00:41:48.426Z,9.60
2019-01-08T00:44:24.923Z,10.87
2019-01-08T00:46:57.976Z,10.83
2019-01-08T00:49:26.917Z,10.30
2019-01-08T00:52:03.088Z,11.50
2019-01-08T00:54:31.895Z,10.10
2019-01-08T00:57:00.873Z,10.93
2019-01-08T00:59:29.802Z,9.60
2019-01-08T01:01:58.907Z,10.37
2019-01-08T01:04:27.750Z,9.53
2019-01-08T01:06:58.348Z,9.20
2019-01-08T01:09:27.853Z,9.37
2019-01-08T01:11:56.811Z,9.17
2019-01-08T01:14:27.202Z,7.57
2019-01-08T01:16:56.547Z,8.63
2019-01-08T01:19:27.177Z,8.40
2019-01-08T01:21:58.943Z,9.17
2019-01-08T01:24:27.547Z,8.37
2019-01-08T01:27:02.000Z,8.00
2019-01-08T01:29:30.965Z,6.30
2019-01-08T01:32:03.929Z,5.43
2019-01-08T01:34:36.445Z,8.43
2019-01-08T01:37:08.346Z,6.93
2019-01-08T01:39:37.108Z,8.13
2019-01-08T01:42:05.859Z,8.97
2019-01-08T01:44:34.591Z,8.17
2019-01-08T01:47:05.658Z,7.10
2019-01-08T01:49:40.253Z,7.83
2019-01-08T01:52:08.938Z,7.83
2019-01-08T01:54:42.255Z,6.47
2019-01-08T01:57:29.631Z,6.33
2019-01-08T01:59:58.379Z,6.13
2019-01-08T02:02:27.350Z,4.33
2019-01-08T02:04:56.059Z,6.90
2019-01-08T02:07:24.950Z,7.03
2019-01-08T02:09:53.706Z,6.20
2019-01-08T02:12:22.557Z,5.87
2019-01-08T02:15:03.638Z,4.77
2019-01-08T02:17:26.558Z,5.00
2019-01-08T02:19:55.344Z,5.63
2019-01-08T02:22:28.370Z,5.57
2019-01-08T02:24:59.843Z,5.70
2019-01-08T02:27:28.476Z,5.37
2019-01-08T02:29:59.975Z,5.40
2019-01-08T02:32:34.957Z,2.87
2019-01-08T02:35:04.053Z,4.97
2019-01-08T02:37:32.875Z,5.80
2019-01-08T02:43:00.357Z,5.13
2019-01-08T02:45:30.570Z,5.00
2019-01-08T02:48:01.917Z,5.10
2019-01-08T02:50:45.364Z,4.63
2019-01-08T02:53:17.186Z,4.73
2019-01-08T02:55:45.953Z,3.97
2019-01-08T02:58:14.661Z,4.60
2019-01-08T03:00:43.283Z,5.30
2019-01-08T03:03:12.101Z,3.97
2019-01-08T03:05:54.157Z,4.87
2019-01-08T03:08:23.753Z,4.77
2019-01-08T03:10:52.503Z,5.10
2019-01-08T03:13:24.252Z,4.07
2019-01-08T03:15:52.971Z,4.57
2019-01-08T03:18:21.730Z,4.33
2019-01-08T03:20:55.903Z,3.70
2019-01-08T03:23:24.633Z,3.63
2019-01-08T03:25:53.412Z,3.73
2019-01-08T03:28:22.233Z,2.60
2019-01-08T03:30:50.888Z,3.47
2019-01-08T03:33:19.512Z,3.87
2019-01-08T03:35:48.333Z,2.97
2019-01-08T03:38:17.055Z,3.63
2019-01-08T03:40:45.849Z,3.17
2019-01-08T03:43:14.564Z,2.20
2019-01-08T03:45:49.262Z,2.50
2019-01-08T03:48:18.143Z,2.47
2019-01-08T03:50:50.214Z,2.63
2019-01-08T03:53:19.305Z,2.90
2019-01-08T03:55:48.182Z,2.87
2019-01-08T03:58:17.060Z,3.33
2019-01-08T04:00:49.194Z,2.30
2019-01-08T04:03:18.031Z,2.03
2019-01-08T04:05:50.728Z,1.80
2019-01-08T04:08:26.706Z,2.40
2019-01-08T04:11:11.667Z,2.70
2019-01-08T04:13:33.023Z,1.97
2019-01-08T04:16:04.561Z,2.23
2019-01-08T04:18:38.879Z,1.97
2019-01-08T04:21:07.701Z,2.07
2019-01-08T04:23:36.586Z,1.90
2019-01-08T04:26:10.510Z,1.97
2019-01-08T04:28:50.022Z,1.87
2019-01-08T04:31:21.542Z,1.60
2019-01-08T04:33:53.099Z,1.30
2019-01-08T04:36:21.963Z,1.50
2019-01-08T04:38:50.817Z,1.57
2019-01-08T04:41:19.697Z,1.70
2019-01-08T04:43:48.753Z,0.83
2019-01-08T04:46:22.836Z,1.23
2019-01-08T04:48:58.693Z,1.23
2019-01-08T04:51:31.724Z,1.20
2019-01-08T04:54:05.771Z,1.30
2019-01-08T04:56:40.902Z,1.40
2019-01-08T04:59:14.435Z,1.03
2019-01-08T05:01:43.610Z,1.27
2019-01-08T05:04:12.456Z,1.37
2019-01-08T05:06:42.890Z,1.37
2019-01-08T05:09:11.791Z,0.90
2019-01-08T05:11:56.687Z,1.37
2019-01-08T05:14:25.665Z,1.50
2019-01-08T05:16:54.427Z,1.30
2019-01-08T05:19:23.139Z,1.37
2019-01-08T05:21:52.193Z,1.50
2019-01-08T05:24:21.414Z,1.33
2019-01-08T05:26:50.366Z,1.60
2019-01-08T05:29:19.325Z,1.90
2019-01-08T05:31:51.021Z,2.13
2019-01-08T05:34:20.293Z,1.60
2019-01-08T05:36:54.041Z,1.80
2019-01-08T05:39:29.976Z,1.77
2019-01-08T05:42:00.437Z,1.73
2019-01-08T05:44:35.880Z,2.20
2019-01-08T05:47:04.303Z,2.17
2019-01-08T05:49:33.162Z,2.50
2019-01-08T05:52:11.808Z,2.47
2019-01-08T05:54:38.443Z,2.13
2019-01-08T05:57:14.847Z,2.20
2019-01-08T05:59:44.297Z,2.40
2019-01-08T06:02:13.093Z,2.27
2019-01-08T06:04:42.026Z,2.53
2019-01-08T06:07:12.326Z,1.93
2019-01-08T06:09:41.558Z,1.80
2019-01-08T06:12:10.567Z,1.93
2019-01-08T06:14:45.759Z,1.90
2019-01-08T06:17:15.652Z,2.20
2019-01-08T06:19:47.476Z,2.10
2019-01-08T06:22:21.667Z,1.50
2019-01-08T06:25:09.892Z,1.43
2019-01-08T06:27:38.880Z,1.70
2019-01-08T06:30:08.419Z,1.70
2019-01-08T06:32:37.223Z,1.63
2019-01-08T06:35:06.640Z,1.67
2019-01-08T06:37:38.116Z,1.60
2019-01-08T06:40:07.342Z,1.60
2019-01-08T06:42:52.752Z,1.77
2019-01-08T06:45:31.698Z,1.70
2019-01-08T06:48:07.772Z,1.80
2019-01-08T06:50:36.553Z,2.10
2019-01-08T06:53:16.790Z,2.23
2019-01-08T06:58:21.132Z,2.40
2019-01-08T07:00:50.231Z,2.40
2019-01-08T07:03:20.443Z,2.33
2019-01-08T07:05:49.331Z,2.40
2019-01-08T07:08:21.028Z,2.60
2019-01-08T07:10:53.822Z,2.37
2019-01-08T07:13:25.575Z,2.40
2019-01-08T07:16:02.557Z,2.50
2019-01-08T07:18:31.385Z,2.03
2019-01-08T07:21:01.488Z,1.90
2019-01-08T07:23:33.485Z,2.10
2019-01-08T07:26:05.048Z,1.60
2019-01-08T07:28:36.823Z,1.77
2019-01-08T07:31:14.093Z,1.60
2019-01-08T07:33:43.013Z,2.03
2019-01-08T07:36:12.171Z,1.60
2019-01-08T07:38:48.283Z,2.17
2019-01-08T07:41:17.135Z,1.83
2019-01-08T07:43:46.169Z,1.40
2019-01-08T07:46:18.192Z,2.20
2019-01-08T07:48:47.274Z,2.07
2019-01-08T07:51:15.854Z,1.60
2019-01-08T07:53:53.415Z,1.57
2019-01-08T07:56:41.358Z,1.70
2019-01-08T07:59:09.920Z,1.97
2019-01-08T08:01:38.658Z,2.00
2019-01-08T08:04:15.956Z,2.13
2019-01-08T08:06:46.973Z,1.90
2019-01-08T08:09:15.848Z,2.43
2019-01-08T08:11:44.629Z,1.80
2019-01-08T08:14:13.508Z,1.73
2019-01-08T08:16:42.632Z,1.80
2019-01-08T08:19:11.462Z,1.77
2019-01-08T08:21:41.235Z,1.70
2019-01-08T08:24:10.211Z,1.80
2019-01-08T08:26:39.033Z,2.30
2019-01-08T08:29:12.179Z,2.10
2019-01-08T08:31:54.057Z,2.10
2019-01-08T08:34:24.586Z,2.00
2019-01-08T08:36:54.447Z,1.90
2019-01-08T08:39:23.995Z,2.10
2019-01-08T08:41:52.914Z,2.13
2019-01-08T08:44:21.594Z,2.00
2019-01-08T08:46:50.777Z,2.40
2019-01-08T08:49:21.645Z,2.17
2019-01-08T08:51:54.142Z,2.03
2019-01-08T08:54:25.636Z,2.57
2019-01-08T08:56:54.373Z,2.20
2019-01-08T08:59:29.479Z,2.03
2019-01-08T09:02:01.245Z,2.30
2019-01-08T09:04:30.136Z,2.50
2019-01-08T09:06:59.003Z,2.10
2019-01-08T09:09:27.881Z,2.50
2019-01-08T09:11:56.609Z,2.50
2019-01-08T09:14:25.365Z,1.97
2019-01-08T09:16:58.569Z,2.20
2019-01-08T09:19:27.400Z,2.10
2019-01-08T09:22:01.893Z,2.50
2019-01-08T09:24:32.917Z,2.20
2019-01-08T09:27:01.694Z,1.90
2019-01-08T09:29:31.837Z,2.00
2019-01-08T09:32:02.429Z,2.23
2019-01-08T09:34:33.307Z,2.20
2019-01-08T09:37:05.234Z,2.00
2019-01-08T09:39:43.938Z,2.17
2019-01-08T09:42:16.003Z,1.83
2019-01-08T09:44:47.723Z,1.47
2019-01-08T09:47:17.329Z,1.93
2019-01-08T09:49:46.212Z,1.60
2019-01-08T09:52:14.960Z,1.80
2019-01-08T09:54:43.705Z,1.90
2019-01-08T09:57:13.521Z,2.13
2019-01-08T09:59:47.011Z,2.13
2019-01-08T10:02:18.449Z,2.03
2019-01-08T10:04:47.501Z,2.40
2019-01-08T10:07:16.318Z,1.97
2019-01-08T10:09:46.387Z,2.60
2019-01-08T10:12:15.154Z,3.20
2019-01-08T10:14:44.074Z,2.63
2019-01-08T10:17:15.558Z,2.23
2019-01-08T10:19:44.807Z,3.00
2019-01-08T10:22:15.487Z,2.50
2019-01-08T10:24:46.903Z,2.40
2019-01-08T10:27:24.491Z,2.00
2019-01-08T10:29:58.710Z,2.43
2019-01-08T10:32:28.346Z,2.00
2019-01-08T10:34:59.581Z,2.23
2019-01-08T10:37:28.543Z,1.60
2019-01-08T10:39:58.488Z,1.97
2019-01-08T10:42:27.603Z,2.63
2019-01-08T10:44:56.503Z,2.50
2019-01-08T10:47:25.767Z,2.77
2019-01-08T10:49:54.520Z,2.40
2019-01-08T10:52:27.445Z,2.20
2019-01-08T10:54:56.280Z,2.60
2019-01-08T10:57:25.231Z,2.10
2019-01-08T10:59:59.559Z,1.80
2019-01-08T11:02:44.968Z,2.37
2019-01-08T11:05:23.272Z,2.50
2019-01-08T11:07:55.253Z,1.73
2019-01-08T11:10:30.192Z,1.83
2019-01-08T11:12:59.247Z,2.20
2019-01-08T11:15:35.110Z,1.50
2019-01-08T11:18:03.995Z,2.03
2019-01-08T11:20:35.889Z,1.73
2019-01-08T11:23:05.405Z,1.93
2019-01-08T11:25:34.253Z,2.07
2019-01-08T11:28:03.136Z,1.90
2019-01-08T11:30:36.195Z,2.70
2019-01-08T11:33:07.804Z,2.90
2019-01-08T11:35:42.227Z,2.67
2019-01-08T11:38:10.400Z,2.23
2019-01-08T11:40:41.931Z,1.83
2019-01-08T11:43:17.309Z,2.13
2019-01-08T11:45:46.169Z,2.07
2019-01-08T11:48:17.842Z,2.30
2019-01-08T11:50:46.889Z,2.50
2019-01-08T11:53:16.045Z,2.10
2019-01-08T11:55:44.770Z,1.93
2019-01-08T11:58:13.674Z,2.03
2019-01-08T12:00:42.567Z,1.70
2019-01-08T12:03:11.339Z,2.30
2019-01-08T12:05:40.197Z,2.40
2019-01-08T12:08:09.083Z,1.87
2019-01-08T12:10:38.172Z,2.30
2019-01-08T12:13:07.660Z,2.37
2019-01-08T12:15:36.619Z,2.30
2019-01-08T12:18:08.396Z,2.40
2019-01-08T12:20:39.785Z,1.90
2019-01-08T12:23:08.713Z,1.70
2019-01-08T12:25:39.317Z,2.20
2019-01-08T12:28:08.167Z,2.13
2019-01-08T12:30:42.404Z,2.00
2019-01-08T12:33:11.397Z,1.90
2019-01-08T12:35:43.226Z,1.90
2019-01-08T12:38:12.239Z,1.37
2019-01-08T12:40:42.111Z,1.90
2019-01-08T12:43:11.197Z,1.70
2019-01-08T12:45:40.006Z,1.43
2019-01-08T12:48:09.030Z,1.43
2019-01-08T12:50:37.932Z,2.00
2019-01-08T12:53:06.870Z,1.40
2019-01-08T12:55:41.674Z,1.80
2019-01-08T12:58:10.337Z,1.63
2019-01-08T13:00:44.648Z,1.60
2019-01-08T13:03:13.737Z,1.30
2019-01-08T13:05:45.669Z,1.80
2019-01-08T13:08:14.573Z,1.07
2019-01-08T13:10:46.436Z,1.10
2019-01-08T13:13:15.195Z,1.50
2019-01-08T13:15:43.994Z,0.70
2019-01-08T13:18:12.754Z,0.83
2019-01-08T13:20:41.650Z,1.53
2019-01-08T13:23:10.823Z,1.00
2019-01-08T13:25:39.558Z,1.10
2019-01-08T13:28:08.348Z,1.23
2019-01-08T13:30:37.035Z,1.40
2019-01-08T13:33:05.856Z,1.63
2019-01-08T13:35:34.888Z,1.50
2019-01-08T13:38:03.722Z,1.40
2019-01-08T13:40:32.781Z,0.80
2019-01-08T13:43:01.594Z,0.90
2019-01-08T13:45:30.526Z,1.00
2019-01-08T13:47:59.586Z,0.87
2019-01-08T13:50:28.539Z,1.00
2019-01-08T13:52:57.571Z,1.10
2019-01-08T13:55:26.707Z,1.10
2019-01-08T13:57:55.640Z,1.30
2019-01-08T14:00:31.789Z,1.30
2019-01-08T14:03:00.769Z,1.20
2019-01-08T14:05:34.415Z,1.43
2019-01-08T14:08:04.780Z,1.30
2019-01-08T14:10:34.660Z,1.47
2019-01-08T14:13:03.731Z,1.10
2019-01-08T14:15:35.635Z,1.13
2019-01-08T14:18:04.579Z,1.53
2019-01-08T14:20:33.432Z,1.37
2019-01-08T14:23:02.223Z,1.40
2019-01-08T14:25:35.449Z,1.40
2019-01-08T14:28:04.234Z,1.63
2019-01-08T14:30:35.973Z,1.93
2019-01-08T14:33:05.285Z,1.50
2019-01-08T14:35:34.289Z,1.70
2019-01-08T14:38:02.930Z,1.50
2019-01-08T14:40:34.679Z,1.40
2019-01-08T14:43:03.486Z,1.77
2019-01-08T14:45:32.347Z,1.10
2019-01-08T14:48:01.154Z,1.63
2019-01-08T14:50:33.135Z,1.13
2019-01-08T14:53:02.876Z,1.40
2019-01-08T14:55:31.765Z,1.40
2019-01-08T14:58:00.758Z,1.47
2019-01-08T15:00:29.724Z,1.30
2019-01-08T15:02:58.684Z,1.30
2019-01-08T15:05:27.506Z,1.37
2019-01-08T15:07:56.572Z,1.40
2019-01-08T15:10:25.434Z,1.00
2019-01-08T15:12:54.650Z,1.20
2019-01-08T15:15:23.699Z,1.10
2019-01-08T15:17:52.614Z,1.43
2019-01-08T15:20:21.332Z,1.07
2019-01-08T15:22:50.118Z,1.40
2019-01-08T15:25:19.332Z,1.00
2019-01-08T15:27:48.321Z,0.90
2019-01-08T15:30:17.228Z,1.40
2019-01-08T15:32:49.069Z,1.00
2019-01-08T15:35:17.962Z,0.93
2019-01-08T15:37:55.671Z,0.93
2019-01-08T15:40:24.902Z,1.43
2019-01-08T15:42:53.711Z,1.20
2019-01-08T15:45:22.699Z,1.23
2019-01-08T15:47:51.653Z,1.10
2019-01-08T15:50:20.524Z,1.10
2019-01-08T15:52:49.526Z,1.80
2019-01-08T15:55:22.433Z,1.27
2019-01-08T15:57:54.118Z,1.27
2019-01-08T16:00:22.892Z,1.50
2019-01-08T16:02:51.679Z,1.47
2019-01-08T16:05:34.889Z,1.40
2019-01-08T16:08:03.747Z,1.30
2019-01-08T16:10:38.950Z,1.40
2019-01-08T16:13:07.740Z,1.23
2019-01-08T16:15:39.600Z,1.03
2019-01-08T16:18:08.472Z,1.20
2019-01-08T16:20:37.295Z,0.93
2019-01-08T16:23:09.275Z,1.00
2019-01-08T16:25:38.164Z,1.73
2019-01-08T16:28:06.905Z,1.43
2019-01-08T16:30:48.907Z,1.30
2019-01-08T16:33:17.882Z,1.27
2019-01-08T16:35:46.814Z,1.80
2019-01-08T16:38:15.592Z,1.40
2019-01-08T16:40:45.284Z,1.93
2019-01-08T16:43:14.082Z,1.97
2019-01-08T16:45:45.781Z,1.50
2019-01-08T16:48:14.574Z,2.80
2019-01-08T16:50:43.711Z,2.23
2019-01-08T16:53:16.835Z,2.47
2019-01-08T16:55:43.246Z,2.40
2019-01-08T16:58:12.037Z,2.17
2019-01-08T17:00:40.814Z,2.07
2019-01-08T17:03:12.353Z,2.47
2019-01-08T17:05:41.161Z,1.90
2019-01-08T17:08:09.780Z,2.03
2019-01-08T17:10:41.702Z,1.83
2019-01-08T17:13:10.394Z,1.83
2019-01-08T17:15:39.203Z,1.60
2019-01-08T17:18:07.918Z,1.80
2019-01-08T17:20:42.429Z,2.37
2019-01-08T17:23:11.280Z,2.17
2019-01-08T17:25:47.900Z,2.00
2019-01-08T17:28:13.348Z,2.10
2019-01-08T17:30:42.272Z,1.93
2019-01-08T17:33:11.057Z,1.87
2019-01-08T17:35:41.733Z,2.20
2019-01-08T17:38:13.231Z,1.70
2019-01-08T17:40:43.020Z,2.77
2019-01-08T17:43:11.771Z,1.73
2019-01-08T17:45:40.547Z,1.97
2019-01-08T17:48:10.902Z,2.10
2019-01-08T17:50:41.068Z,2.07
2019-01-08T17:53:14.898Z,1.20
2019-01-08T17:55:43.627Z,1.60
2019-01-08T17:58:38.066Z,1.57
2019-01-08T18:01:12.956Z,1.57
2019-01-08T18:03:42.867Z,1.57
2019-01-08T18:06:14.797Z,1.70
2019-01-08T18:08:43.768Z,1.50
2019-01-08T18:11:12.460Z,2.07
2019-01-08T18:13:41.424Z,1.80
2019-01-08T18:16:10.810Z,1.97
2019-01-08T18:18:46.397Z,2.03
2019-01-08T18:21:15.928Z,1.57
2019-01-08T18:23:48.973Z,2.10
2019-01-08T18:26:15.778Z,2.17
2019-01-08T18:28:47.607Z,1.83
2019-01-08T18:31:19.257Z,2.40
2019-01-08T18:33:51.682Z,2.17
2019-01-08T18:36:22.391Z,2.13
2019-01-08T18:38:51.166Z,2.30
2019-01-08T18:41:20.019Z,2.37
2019-01-08T18:43:48.985Z,2.20
2019-01-08T18:46:19.753Z,2.63
2019-01-08T18:48:48.587Z,2.40
2019-01-08T18:51:20.465Z,2.60
2019-01-08T18:53:49.457Z,2.23
2019-01-08T18:56:18.489Z,2.10
2019-01-08T18:58:47.448Z,2.10
2019-01-08T19:01:16.126Z,2.37
2019-01-08T19:03:49.106Z,2.33
2019-01-08T19:06:19.363Z,2.33
2019-01-08T19:09:25.278Z,2.03
2019-01-08T19:11:54.376Z,1.73
2019-01-08T19:14:26.717Z,2.57
2019-01-08T19:16:55.450Z,1.80
2019-01-08T19:19:24.556Z,2.50
2019-01-08T19:21:53.364Z,2.40
2019-01-08T19:24:22.100Z,1.53
2019-01-08T19:26:59.001Z,2.03
2019-01-08T19:29:30.292Z,1.97
2019-01-08T19:32:02.063Z,1.90
2019-01-08T19:34:36.512Z,1.80
2019-01-08T19:37:05.559Z,2.13
2019-01-08T19:39:35.967Z,2.17
2019-01-08T19:42:07.856Z,2.17
2019-01-08T19:44:41.161Z,2.00
2019-01-08T19:47:13.207Z,2.07
2019-01-08T19:49:46.776Z,2.30
2019-01-08T19:52:21.108Z,1.87
2019-01-08T19:54:53.313Z,1.90
2019-01-08T19:57:24.790Z,2.27
2019-01-08T19:59:58.634Z,1.43
2019-01-08T20:02:27.690Z,1.30
2019-01-08T20:05:00.876Z,2.00
2019-01-08T20:07:31.321Z,1.57
2019-01-08T20:10:00.379Z,1.77
2019-01-08T20:12:34.141Z,1.20
2019-01-08T20:15:04.158Z,1.40
2019-01-08T20:17:37.315Z,1.50
2019-01-08T20:20:09.485Z,1.70
2019-01-08T20:22:38.174Z,1.30
2019-01-08T20:25:07.067Z,1.70
2019-01-08T20:27:35.977Z,1.60
2019-01-08T20:30:08.324Z,1.70
2019-01-08T20:32:42.990Z,1.83
2019-01-08T20:35:18.355Z,1.77
2019-01-08T20:37:50.567Z,1.57
2019-01-08T20:40:20.904Z,1.33
2019-01-08T20:42:50.122Z,1.70
2019-01-08T20:45:18.934Z,2.43
2019-01-08T20:47:48.088Z,1.93
2019-01-08T20:50:17.270Z,2.23
2019-01-08T20:52:46.419Z,1.80
2019-01-08T20:55:15.468Z,1.87
2019-01-08T20:57:44.368Z,2.37
2019-01-08T21:00:13.609Z,1.70
2019-01-08T21:02:42.594Z,1.47
2019-01-08T21:05:11.456Z,1.70
2019-01-08T21:07:40.462Z,1.83
2019-01-08T21:10:12.094Z,1.77
2019-01-08T21:12:41.073Z,1.77
2019-01-08T21:15:11.498Z,2.47
2019-01-08T21:17:40.494Z,2.07
2019-01-08T21:20:09.358Z,1.90
2019-01-08T21:22:38.386Z,2.07
2019-01-08T21:25:08.868Z,1.30
2019-01-08T21:27:37.823Z,1.77
2019-01-08T21:30:09.068Z,2.20
2019-01-08T21:32:37.950Z,1.97
2019-01-08T21:35:06.645Z,2.40
2019-01-08T21:37:35.447Z,2.27
2019-01-08T21:40:14.190Z,2.63
2019-01-08T21:42:40.470Z,2.50
2019-01-08T21:45:09.486Z,2.33
2019-01-08T21:47:38.464Z,2.83
2019-01-08T21:50:08.362Z,2.63
2019-01-08T21:52:45.428Z,2.47
2019-01-08T21:55:14.337Z,2.70
2019-01-08T21:57:43.358Z,2.30
2019-01-08T22:00:12.499Z,3.17
2019-01-08T22:02:41.624Z,2.50
2019-01-08T22:05:16.571Z,2.73
2019-01-08T22:07:45.727Z,2.87
2019-01-08T22:10:14.589Z,2.17
2019-01-08T22:12:43.525Z,2.10
2019-01-08T22:15:12.566Z,3.07
2019-01-08T22:17:42.663Z,2.40
2019-01-08T22:20:11.557Z,2.23
2019-01-08T22:22:40.479Z,2.93
2019-01-08T22:25:10.068Z,3.53
2019-01-08T22:27:39.043Z,3.00
2019-01-08T22:30:08.805Z,2.70
2019-01-08T22:32:37.636Z,3.00
2019-01-08T22:35:09.463Z,2.60
2019-01-08T22:37:39.512Z,3.10
2019-01-08T22:40:09.517Z,2.27
2019-01-08T22:42:38.315Z,2.70
2019-01-08T22:45:07.682Z,2.70
2019-01-08T22:47:36.552Z,2.93
2019-01-08T22:50:07.378Z,1.93
2019-01-08T22:52:37.799Z,2.80
2019-01-08T22:55:07.234Z,2.00
2019-01-08T22:57:36.896Z,2.70
2019-01-08T23:00:10.454Z,2.20
2019-01-08T23:02:39.852Z,2.40
2019-01-08T23:05:10.991Z,2.33
2019-01-08T23:07:39.586Z,2.87
2019-01-08T23:10:08.655Z,2.57
2019-01-08T23:12:40.345Z,2.33
2019-01-08T23:15:09.277Z,2.30
2019-01-08T23:17:40.878Z,2.10
2019-01-08T23:20:09.612Z,2.83
2019-01-08T23:22:38.459Z,2.30
2019-01-08T23:25:07.957Z,2.53
2019-01-08T23:27:36.829Z,1.67
2019-01-08T23:30:12.107Z,2.40
2019-01-08T23:32:46.534Z,2.00
2019-01-08T23:35:19.536Z,1.97
2019-01-08T23:37:52.926Z,2.00
2019-01-08T23:40:33.483Z,2.03
2019-01-08T23:43:06.613Z,2.20
2019-01-08T23:45:40.982Z,2.33
2019-01-08T23:48:10.781Z,2.17
2019-01-08T23:50:39.590Z,2.00
2019-01-08T23:53:15.590Z,2.40
2019-01-08T23:55:50.789Z,2.10
2019-01-08T23:58:23.783Z,2.10
